Terminal Aerodrome Forecast
Issued by NWS Dodge City, KS

Home | Current Version | Previous Version | Text Only | Print | Product List | Glossary On
Versions: 1 2 3 4 5 6 7 8 9 10 11 12 13 14 15 16 17 18 19 20 21 22 23 24 25 26 27 28 29 30 31 32 33 34 35 36 37 38 39 40 41 42 43 44 45 46 47 48 49 50
000
FTUS43 KDDC 282320
TAFDDC
TAF
KDDC 282320Z 2900/2924 13009KT P6SM FEW060 FEW250
     FM290500 08008KT P6SM -SHRA BKN130
      TEMPO 2905/2909 4SM TS OVC040CB
     FM290900 07008KT P6SM -SHRA VCTS BKN100CB
     FM291000 08008KT P6SM BKN090 PROB30 2911/2912 2SM -TSRA
      OVC015CB
     FM291200 07009KT P6SM BKN045=

USA.gov is the U.S. government's official web portal to all federal, state and local government web resources and services.